sensor_id;sensor_type;location;lat;lon;timestamp;P1;durP1;ratioP1;P2;durP2;ratioP2
4268;SDS011;2148;48.554;7.834;2023-05-10T00:01:50;2.50;;;1.23;;
4268;SDS011;2148;48.554;7.834;2023-05-10T00:04:15;1.30;;;1.20;;
4268;SDS011;2148;48.554;7.834;2023-05-10T00:06:40;2.23;;;1.20;;
4268;SDS011;2148;48.554;7.834;2023-05-10T00:09:06;1.30;;;1.20;;
4268;SDS011;2148;48.554;7.834;2023-05-10T00:11:31;3.47;;;1.47;;
4268;SDS011;2148;48.554;7.834;2023-05-10T00:13:56;1.30;;;1.20;;
4268;SDS011;2148;48.554;7.834;2023-05-10T00:16:22;1.90;;;1.33;;
4268;SDS011;2148;48.554;7.834;2023-05-10T00:18:47;2.27;;;1.30;;
4268;SDS011;2148;48.554;7.834;2023-05-10T00:21:12;1.73;;;1.40;;
4268;SDS011;2148;48.554;7.834;2023-05-10T00:23:37;3.00;;;1.30;;
4268;SDS011;2148;48.554;7.834;2023-05-10T00:26:03;3.90;;;1.30;;
4268;SDS011;2148;48.554;7.834;2023-05-10T00:28:28;3.27;;;1.47;;
4268;SDS011;2148;48.554;7.834;2023-05-10T00:30:54;2.53;;;1.40;;
4268;SDS011;2148;48.554;7.834;2023-05-10T00:33:20;2.33;;;1.40;;
4268;SDS011;2148;48.554;7.834;2023-05-10T00:35:46;2.07;;;1.20;;
4268;SDS011;2148;48.554;7.834;2023-05-10T00:38:11;1.47;;;1.20;;
4268;SDS011;2148;48.554;7.834;2023-05-10T00:40:36;2.10;;;1.33;;
4268;SDS011;2148;48.554;7.834;2023-05-10T00:43:02;1.40;;;1.30;;
4268;SDS011;2148;48.554;7.834;2023-05-10T00:45:28;3.33;;;1.40;;
4268;SDS011;2148;48.554;7.834;2023-05-10T00:47:54;2.50;;;1.20;;
4268;SDS011;2148;48.554;7.834;2023-05-10T00:50:21;1.37;;;1.27;;
4268;SDS011;2148;48.554;7.834;2023-05-10T00:52:47;1.47;;;1.30;;
4268;SDS011;2148;48.554;7.834;2023-05-10T00:55:12;2.20;;;1.40;;
4268;SDS011;2148;48.554;7.834;2023-05-10T00:57:38;2.20;;;1.20;;
4268;SDS011;2148;48.554;7.834;2023-05-10T01:00:03;1.97;;;1.10;;
4268;SDS011;2148;48.554;7.834;2023-05-10T01:02:29;2.77;;;1.30;;
4268;SDS011;2148;48.554;7.834;2023-05-10T01:04:55;1.57;;;1.30;;
4268;SDS011;2148;48.554;7.834;2023-05-10T01:07:20;1.40;;;1.10;;
4268;SDS011;2148;48.554;7.834;2023-05-10T01:09:45;1.47;;;1.33;;
4268;SDS011;2148;48.554;7.834;2023-05-10T01:12:11;1.60;;;1.20;;
4268;SDS011;2148;48.554;7.834;2023-05-10T01:14:36;1.43;;;1.10;;
4268;SDS011;2148;48.554;7.834;2023-05-10T01:17:02;1.30;;;1.20;;
4268;SDS011;2148;48.554;7.834;2023-05-10T01:19:29;2.00;;;1.20;;
4268;SDS011;2148;48.554;7.834;2023-05-10T01:22:04;3.30;;;1.40;;
4268;SDS011;2148;48.554;7.834;2023-05-10T01:27:41;1.87;;;1.27;;
4268;SDS011;2148;48.554;7.834;2023-05-10T01:30:27;1.57;;;1.27;;
4268;SDS011;2148;48.554;7.834;2023-05-10T01:33:15;1.30;;;1.20;;
4268;SDS011;2148;48.554;7.834;2023-05-10T01:36:03;1.33;;;1.10;;
4268;SDS011;2148;48.554;7.834;2023-05-10T01:38:41;1.70;;;1.10;;
4268;SDS011;2148;48.554;7.834;2023-05-10T01:43:42;2.90;;;1.50;;
4268;SDS011;2148;48.554;7.834;2023-05-10T01:46:31;1.53;;;1.10;;
4268;SDS011;2148;48.554;7.834;2023-05-10T01:49:00;2.40;;;1.30;;
4268;SDS011;2148;48.554;7.834;2023-05-10T01:51:29;2.27;;;1.30;;
4268;SDS011;2148;48.554;7.834;2023-05-10T01:54:02;2.50;;;1.30;;
4268;SDS011;2148;48.554;7.834;2023-05-10T01:56:29;2.60;;;1.40;;
4268;SDS011;2148;48.554;7.834;2023-05-10T01:58:55;1.57;;;1.47;;
4268;SDS011;2148;48.554;7.834;2023-05-10T02:01:21;1.30;;;1.20;;
4268;SDS011;2148;48.554;7.834;2023-05-10T02:03:47;1.40;;;1.30;;
4268;SDS011;2148;48.554;7.834;2023-05-10T02:06:14;2.13;;;1.50;;
4268;SDS011;2148;48.554;7.834;2023-05-10T02:08:41;2.53;;;1.50;;
4268;SDS011;2148;48.554;7.834;2023-05-10T02:11:08;1.70;;;1.57;;
4268;SDS011;2148;48.554;7.834;2023-05-10T02:13:34;2.97;;;1.43;;
4268;SDS011;2148;48.554;7.834;2023-05-10T02:16:00;2.80;;;1.40;;
4268;SDS011;2148;48.554;7.834;2023-05-10T02:18:26;3.10;;;1.90;;
4268;SDS011;2148;48.554;7.834;2023-05-10T02:20:52;1.93;;;1.60;;
4268;SDS011;2148;48.554;7.834;2023-05-10T02:23:19;4.57;;;1.80;;
4268;SDS011;2148;48.554;7.834;2023-05-10T02:25:45;2.00;;;1.50;;
4268;SDS011;2148;48.554;7.834;2023-05-10T02:28:11;1.87;;;1.53;;
4268;SDS011;2148;48.554;7.834;2023-05-10T02:30:37;2.33;;;1.80;;
4268;SDS011;2148;48.554;7.834;2023-05-10T02:33:03;1.70;;;1.60;;
4268;SDS011;2148;48.554;7.834;2023-05-10T02:35:29;2.63;;;1.60;;
4268;SDS011;2148;48.554;7.834;2023-05-10T02:37:56;1.60;;;1.50;;
4268;SDS011;2148;48.554;7.834;2023-05-10T02:40:22;1.60;;;1.50;;
4268;SDS011;2148;48.554;7.834;2023-05-10T02:42:47;1.60;;;1.40;;
4268;SDS011;2148;48.554;7.834;2023-05-10T02:45:17;2.17;;;1.40;;
4268;SDS011;2148;48.554;7.834;2023-05-10T02:47:45;2.77;;;1.60;;
4268;SDS011;2148;48.554;7.834;2023-05-10T02:50:10;1.83;;;1.73;;
4268;SDS011;2148;48.554;7.834;2023-05-10T02:52:59;2.80;;;1.50;;
4268;SDS011;2148;48.554;7.834;2023-05-10T02:55:25;3.60;;;1.40;;
4268;SDS011;2148;48.554;7.834;2023-05-10T02:57:52;1.63;;;1.53;;
4268;SDS011;2148;48.554;7.834;2023-05-10T03:00:21;1.67;;;1.57;;
4268;SDS011;2148;48.554;7.834;2023-05-10T03:02:46;3.93;;;1.60;;
4268;SDS011;2148;48.554;7.834;2023-05-10T03:05:12;1.57;;;1.47;;
4268;SDS011;2148;48.554;7.834;2023-05-10T03:07:37;4.10;;;1.70;;
4268;SDS011;2148;48.554;7.834;2023-05-10T03:10:03;2.03;;;1.67;;
4268;SDS011;2148;48.554;7.834;2023-05-10T03:12:50;4.50;;;2.03;;
4268;SDS011;2148;48.554;7.834;2023-05-10T03:15:28;1.60;;;1.50;;
4268;SDS011;2148;48.554;7.834;2023-05-10T03:18:06;3.60;;;1.87;;
4268;SDS011;2148;48.554;7.834;2023-05-10T03:20:38;1.63;;;1.53;;
4268;SDS011;2148;48.554;7.834;2023-05-10T03:23:08;1.70;;;1.60;;
4268;SDS011;2148;48.554;7.834;2023-05-10T03:25:37;3.50;;;1.60;;
4268;SDS011;2148;48.554;7.834;2023-05-10T03:28:03;2.80;;;1.50;;
4268;SDS011;2148;48.554;7.834;2023-05-10T03:30:29;1.70;;;1.60;;
4268;SDS011;2148;48.554;7.834;2023-05-10T03:32:55;2.10;;;1.60;;
4268;SDS011;2148;48.554;7.834;2023-05-10T03:35:21;2.30;;;1.63;;
4268;SDS011;2148;48.554;7.834;2023-05-10T03:37:47;2.13;;;1.70;;
4268;SDS011;2148;48.554;7.834;2023-05-10T03:40:12;1.93;;;1.83;;
4268;SDS011;2148;48.554;7.834;2023-05-10T03:42:37;3.33;;;1.80;;
4268;SDS011;2148;48.554;7.834;2023-05-10T03:45:03;5.30;;;1.90;;
4268;SDS011;2148;48.554;7.834;2023-05-10T03:47:28;1.80;;;1.70;;
4268;SDS011;2148;48.554;7.834;2023-05-10T03:49:54;2.87;;;2.13;;
4268;SDS011;2148;48.554;7.834;2023-05-10T03:52:19;2.10;;;1.90;;
4268;SDS011;2148;48.554;7.834;2023-05-10T03:54:45;2.80;;;1.90;;
4268;SDS011;2148;48.554;7.834;2023-05-10T03:57:10;2.07;;;1.93;;
4268;SDS011;2148;48.554;7.834;2023-05-10T03:59:35;2.20;;;2.00;;
4268;SDS011;2148;48.554;7.834;2023-05-10T04:02:01;1.80;;;1.70;;
4268;SDS011;2148;48.554;7.834;2023-05-10T04:04:26;2.43;;;1.67;;
4268;SDS011;2148;48.554;7.834;2023-05-10T04:06:51;1.87;;;1.57;;
4268;SDS011;2148;48.554;7.834;2023-05-10T04:09:17;1.80;;;1.60;;
4268;SDS011;2148;48.554;7.834;2023-05-10T04:11:43;2.13;;;1.70;;
4268;SDS011;2148;48.554;7.834;2023-05-10T04:14:08;1.73;;;1.63;;
4268;SDS011;2148;48.554;7.834;2023-05-10T04:16:33;4.33;;;2.00;;
4268;SDS011;2148;48.554;7.834;2023-05-10T04:18:59;1.83;;;1.73;;
4268;SDS011;2148;48.554;7.834;2023-05-10T04:21:24;2.47;;;1.67;;
4268;SDS011;2148;48.554;7.834;2023-05-10T04:23:50;2.37;;;1.80;;
4268;SDS011;2148;48.554;7.834;2023-05-10T04:26:15;1.93;;;1.70;;
4268;SDS011;2148;48.554;7.834;2023-05-10T04:28:40;2.60;;;1.80;;
4268;SDS011;2148;48.554;7.834;2023-05-10T04:31:06;2.77;;;1.80;;
4268;SDS011;2148;48.554;7.834;2023-05-10T04:33:33;1.77;;;1.67;;
4268;SDS011;2148;48.554;7.834;2023-05-10T04:35:59;1.80;;;1.63;;
4268;SDS011;2148;48.554;7.834;2023-05-10T04:38:24;2.47;;;1.70;;
4268;SDS011;2148;48.554;7.834;2023-05-10T04:40:50;1.83;;;1.73;;
4268;SDS011;2148;48.554;7.834;2023-05-10T04:43:15;2.53;;;1.87;;
4268;SDS011;2148;48.554;7.834;2023-05-10T04:45:40;2.50;;;1.60;;
4268;SDS011;2148;48.554;7.834;2023-05-10T04:48:06;2.30;;;1.70;;
4268;SDS011;2148;48.554;7.834;2023-05-10T04:50:31;2.30;;;1.83;;
4268;SDS011;2148;48.554;7.834;2023-05-10T04:52:56;2.30;;;1.80;;
4268;SDS011;2148;48.554;7.834;2023-05-10T04:55:22;2.47;;;1.90;;
4268;SDS011;2148;48.554;7.834;2023-05-10T04:57:47;3.40;;;2.10;;
4268;SDS011;2148;48.554;7.834;2023-05-10T05:00:12;4.30;;;2.37;;
4268;SDS011;2148;48.554;7.834;2023-05-10T05:02:38;4.83;;;2.50;;
4268;SDS011;2148;48.554;7.834;2023-05-10T05:05:07;8.03;;;2.57;;
4268;SDS011;2148;48.554;7.834;2023-05-10T05:07:32;2.57;;;2.13;;
4268;SDS011;2148;48.554;7.834;2023-05-10T05:09:58;2.10;;;1.87;;
4268;SDS011;2148;48.554;7.834;2023-05-10T05:12:23;4.83;;;2.00;;
4268;SDS011;2148;48.554;7.834;2023-05-10T05:14:48;2.20;;;2.00;;
4268;SDS011;2148;48.554;7.834;2023-05-10T05:17:14;2.70;;;1.73;;
4268;SDS011;2148;48.554;7.834;2023-05-10T05:19:39;2.03;;;1.60;;
4268;SDS011;2148;48.554;7.834;2023-05-10T05:22:06;3.03;;;1.50;;
4268;SDS011;2148;48.554;7.834;2023-05-10T05:24:34;1.50;;;1.40;;
4268;SDS011;2148;48.554;7.834;2023-05-10T05:27:01;1.80;;;1.70;;
4268;SDS011;2148;48.554;7.834;2023-05-10T05:29:26;3.30;;;1.80;;
4268;SDS011;2148;48.554;7.834;2023-05-10T05:31:52;1.80;;;1.67;;
4268;SDS011;2148;48.554;7.834;2023-05-10T05:34:17;3.27;;;1.90;;
4268;SDS011;2148;48.554;7.834;2023-05-10T05:36:42;1.80;;;1.70;;
4268;SDS011;2148;48.554;7.834;2023-05-10T05:39:07;2.80;;;2.10;;
4268;SDS011;2148;48.554;7.834;2023-05-10T05:41:33;2.27;;;1.80;;
4268;SDS011;2148;48.554;7.834;2023-05-10T05:43:58;2.00;;;1.80;;
4268;SDS011;2148;48.554;7.834;2023-05-10T05:46:23;2.20;;;2.00;;
4268;SDS011;2148;48.554;7.834;2023-05-10T05:48:48;1.80;;;1.67;;
4268;SDS011;2148;48.554;7.834;2023-05-10T05:51:14;2.43;;;1.70;;
4268;SDS011;2148;48.554;7.834;2023-05-10T05:53:39;2.30;;;2.00;;
4268;SDS011;2148;48.554;7.834;2023-05-10T05:56:04;2.23;;;1.67;;
4268;SDS011;2148;48.554;7.834;2023-05-10T05:58:29;1.50;;;1.40;;
4268;SDS011;2148;48.554;7.834;2023-05-10T06:00:55;1.73;;;1.60;;
4268;SDS011;2148;48.554;7.834;2023-05-10T06:03:20;2.40;;;1.60;;
4268;SDS011;2148;48.554;7.834;2023-05-10T06:05:45;1.60;;;1.50;;
4268;SDS011;2148;48.554;7.834;2023-05-10T06:08:11;1.87;;;1.77;;
4268;SDS011;2148;48.554;7.834;2023-05-10T06:10:36;1.60;;;1.50;;
4268;SDS011;2148;48.554;7.834;2023-05-10T06:13:01;3.40;;;1.60;;
4268;SDS011;2148;48.554;7.834;2023-05-10T06:15:27;1.77;;;1.67;;
4268;SDS011;2148;48.554;7.834;2023-05-10T06:17:52;1.70;;;1.60;;
4268;SDS011;2148;48.554;7.834;2023-05-10T06:20:18;2.23;;;1.60;;
4268;SDS011;2148;48.554;7.834;2023-05-10T06:22:43;1.70;;;1.60;;
4268;SDS011;2148;48.554;7.834;2023-05-10T06:25:09;1.97;;;1.40;;
4268;SDS011;2148;48.554;7.834;2023-05-10T06:27:34;2.53;;;1.77;;
4268;SDS011;2148;48.554;7.834;2023-05-10T06:30:00;1.63;;;1.50;;
4268;SDS011;2148;48.554;7.834;2023-05-10T06:32:25;1.80;;;1.70;;
4268;SDS011;2148;48.554;7.834;2023-05-10T06:34:50;2.50;;;1.40;;
4268;SDS011;2148;48.554;7.834;2023-05-10T06:37:15;2.37;;;1.30;;
4268;SDS011;2148;48.554;7.834;2023-05-10T06:39:41;3.13;;;1.47;;
4268;SDS011;2148;48.554;7.834;2023-05-10T06:42:06;2.97;;;1.63;;
4268;SDS011;2148;48.554;7.834;2023-05-10T06:44:31;1.27;;;1.10;;
4268;SDS011;2148;48.554;7.834;2023-05-10T06:46:57;1.40;;;1.30;;
4268;SDS011;2148;48.554;7.834;2023-05-10T06:49:22;1.60;;;1.50;;
4268;SDS011;2148;48.554;7.834;2023-05-10T06:51:47;1.40;;;1.30;;
4268;SDS011;2148;48.554;7.834;2023-05-10T06:54:13;1.47;;;1.37;;
4268;SDS011;2148;48.554;7.834;2023-05-10T06:56:38;1.20;;;1.10;;
4268;SDS011;2148;48.554;7.834;2023-05-10T06:59:03;1.57;;;1.40;;
4268;SDS011;2148;48.554;7.834;2023-05-10T07:01:29;2.17;;;1.30;;
4268;SDS011;2148;48.554;7.834;2023-05-10T07:03:54;1.73;;;1.30;;
4268;SDS011;2148;48.554;7.834;2023-05-10T07:06:19;1.40;;;1.30;;
4268;SDS011;2148;48.554;7.834;2023-05-10T07:08:45;1.63;;;1.50;;
4268;SDS011;2148;48.554;7.834;2023-05-10T07:11:10;1.50;;;1.40;;
4268;SDS011;2148;48.554;7.834;2023-05-10T07:13:35;2.10;;;1.53;;
4268;SDS011;2148;48.554;7.834;2023-05-10T07:16:01;1.93;;;1.73;;
4268;SDS011;2148;48.554;7.834;2023-05-10T07:18:27;2.57;;;1.30;;
4268;SDS011;2148;48.554;7.834;2023-05-10T07:20:52;2.20;;;1.20;;
4268;SDS011;2148;48.554;7.834;2023-05-10T07:23:18;1.50;;;1.40;;
4268;SDS011;2148;48.554;7.834;2023-05-10T07:25:47;1.50;;;1.40;;
4268;SDS011;2148;48.554;7.834;2023-05-10T07:28:13;1.80;;;1.40;;
4268;SDS011;2148;48.554;7.834;2023-05-10T07:30:39;1.50;;;1.40;;
4268;SDS011;2148;48.554;7.834;2023-05-10T07:33:05;1.50;;;1.40;;
4268;SDS011;2148;48.554;7.834;2023-05-10T07:35:30;1.50;;;1.40;;
4268;SDS011;2148;48.554;7.834;2023-05-10T07:37:56;1.60;;;1.50;;
4268;SDS011;2148;48.554;7.834;2023-05-10T07:40:21;1.70;;;1.60;;
4268;SDS011;2148;48.554;7.834;2023-05-10T07:42:46;1.50;;;1.40;;
4268;SDS011;2148;48.554;7.834;2023-05-10T07:45:11;1.80;;;1.43;;
4268;SDS011;2148;48.554;7.834;2023-05-10T07:47:37;2.23;;;1.40;;
4268;SDS011;2148;48.554;7.834;2023-05-10T07:50:02;2.10;;;1.67;;
4268;SDS011;2148;48.554;7.834;2023-05-10T07:52:27;1.77;;;1.50;;
4268;SDS011;2148;48.554;7.834;2023-05-10T07:54:53;3.90;;;1.70;;
4268;SDS011;2148;48.554;7.834;2023-05-10T07:57:18;1.40;;;1.30;;
4268;SDS011;2148;48.554;7.834;2023-05-10T07:59:43;1.57;;;1.47;;
4268;SDS011;2148;48.554;7.834;2023-05-10T08:02:10;1.60;;;1.50;;
4268;SDS011;2148;48.554;7.834;2023-05-10T08:04:35;2.10;;;1.60;;
4268;SDS011;2148;48.554;7.834;2023-05-10T08:07:00;1.90;;;1.50;;
4268;SDS011;2148;48.554;7.834;2023-05-10T08:09:25;1.80;;;1.40;;
4268;SDS011;2148;48.554;7.834;2023-05-10T08:11:51;1.77;;;1.50;;
4268;SDS011;2148;48.554;7.834;2023-05-10T08:14:16;1.40;;;1.30;;
4268;SDS011;2148;48.554;7.834;2023-05-10T08:16:42;1.67;;;1.40;;
4268;SDS011;2148;48.554;7.834;2023-05-10T08:19:07;1.50;;;1.40;;
4268;SDS011;2148;48.554;7.834;2023-05-10T08:21:32;1.73;;;1.40;;
4268;SDS011;2148;48.554;7.834;2023-05-10T08:23:57;1.30;;;1.20;;
4268;SDS011;2148;48.554;7.834;2023-05-10T08:26:23;1.87;;;1.30;;
4268;SDS011;2148;48.554;7.834;2023-05-10T08:28:48;4.30;;;1.40;;
4268;SDS011;2148;48.554;7.834;2023-05-10T08:31:13;1.10;;;1.00;;
4268;SDS011;2148;48.554;7.834;2023-05-10T08:33:40;1.57;;;1.00;;
4268;SDS011;2148;48.554;7.834;2023-05-10T08:36:05;1.63;;;1.17;;
4268;SDS011;2148;48.554;7.834;2023-05-10T08:38:31;1.20;;;1.10;;
4268;SDS011;2148;48.554;7.834;2023-05-10T08:40:56;1.40;;;1.10;;
4268;SDS011;2148;48.554;7.834;2023-05-10T08:43:21;1.00;;;1.00;;
4268;SDS011;2148;48.554;7.834;2023-05-10T08:45:51;1.27;;;1.17;;
4268;SDS011;2148;48.554;7.834;2023-05-10T08:48:18;2.23;;;1.10;;
4268;SDS011;2148;48.554;7.834;2023-05-10T08:50:44;1.47;;;1.17;;
4268;SDS011;2148;48.554;7.834;2023-05-10T08:53:10;1.63;;;1.20;;
4268;SDS011;2148;48.554;7.834;2023-05-10T08:55:37;1.07;;;1.00;;
4268;SDS011;2148;48.554;7.834;2023-05-10T08:58:06;1.20;;;1.10;;
4268;SDS011;2148;48.554;7.834;2023-05-10T09:00:32;1.30;;;1.20;;
4268;SDS011;2148;48.554;7.834;2023-05-10T09:02:57;1.33;;;1.23;;
4268;SDS011;2148;48.554;7.834;2023-05-10T09:05:23;1.47;;;1.37;;
4268;SDS011;2148;48.554;7.834;2023-05-10T09:07:48;1.20;;;1.10;;
4268;SDS011;2148;48.554;7.834;2023-05-10T09:10:14;1.63;;;1.10;;
4268;SDS011;2148;48.554;7.834;2023-05-10T09:12:40;1.30;;;1.20;;
4268;SDS011;2148;48.554;7.834;2023-05-10T09:15:05;1.43;;;1.30;;
4268;SDS011;2148;48.554;7.834;2023-05-10T09:17:32;3.57;;;1.60;;
4268;SDS011;2148;48.554;7.834;2023-05-10T09:19:58;2.50;;;1.37;;
4268;SDS011;2148;48.554;7.834;2023-05-10T09:22:24;3.20;;;1.37;;
4268;SDS011;2148;48.554;7.834;2023-05-10T09:25:03;1.80;;;1.20;;
4268;SDS011;2148;48.554;7.834;2023-05-10T09:27:41;3.37;;;1.57;;
4268;SDS011;2148;48.554;7.834;2023-05-10T09:30:10;2.17;;;1.27;;
4268;SDS011;2148;48.554;7.834;2023-05-10T09:32:39;1.67;;;1.17;;
4268;SDS011;2148;48.554;7.834;2023-05-10T09:35:06;1.57;;;1.13;;
4268;SDS011;2148;48.554;7.834;2023-05-10T09:37:35;2.07;;;1.50;;
4268;SDS011;2148;48.554;7.834;2023-05-10T09:40:00;2.43;;;1.20;;
4268;SDS011;2148;48.554;7.834;2023-05-10T09:42:25;1.37;;;1.20;;
4268;SDS011;2148;48.554;7.834;2023-05-10T09:44:51;2.00;;;1.20;;
4268;SDS011;2148;48.554;7.834;2023-05-10T09:47:19;1.53;;;1.20;;
4268;SDS011;2148;48.554;7.834;2023-05-10T09:49:48;1.53;;;1.40;;
4268;SDS011;2148;48.554;7.834;2023-05-10T09:52:15;2.10;;;1.30;;
4268;SDS011;2148;48.554;7.834;2023-05-10T09:54:42;1.83;;;1.33;;
4268;SDS011;2148;48.554;7.834;2023-05-10T09:57:20;1.80;;;1.40;;
4268;SDS011;2148;48.554;7.834;2023-05-10T09:59:50;1.73;;;1.40;;
4268;SDS011;2148;48.554;7.834;2023-05-10T10:02:15;2.60;;;1.27;;
4268;SDS011;2148;48.554;7.834;2023-05-10T10:04:41;1.33;;;1.13;;
4268;SDS011;2148;48.554;7.834;2023-05-10T10:07:07;1.83;;;1.20;;
4268;SDS011;2148;48.554;7.834;2023-05-10T10:09:33;1.80;;;1.30;;
4268;SDS011;2148;48.554;7.834;2023-05-10T10:11:59;3.00;;;1.37;;
4268;SDS011;2148;48.554;7.834;2023-05-10T10:14:25;2.13;;;1.40;;
4268;SDS011;2148;48.554;7.834;2023-05-10T10:16:50;2.27;;;1.73;;
4268;SDS011;2148;48.554;7.834;2023-05-10T10:19:19;1.40;;;1.10;;
4268;SDS011;2148;48.554;7.834;2023-05-10T10:21:45;3.53;;;1.83;;
4268;SDS011;2148;48.554;7.834;2023-05-10T10:24:10;1.93;;;1.50;;
4268;SDS011;2148;48.554;7.834;2023-05-10T10:26:36;3.07;;;1.50;;
4268;SDS011;2148;48.554;7.834;2023-05-10T10:34:32;1.30;;;1.20;;
4268;SDS011;2148;48.554;7.834;2023-05-10T10:36:58;3.00;;;1.17;;
4268;SDS011;2148;48.554;7.834;2023-05-10T10:39:29;1.30;;;1.20;;
4268;SDS011;2148;48.554;7.834;2023-05-10T10:41:55;1.40;;;1.23;;
4268;SDS011;2148;48.554;7.834;2023-05-10T10:49:43;2.30;;;1.20;;
4268;SDS011;2148;48.554;7.834;2023-05-10T10:55:05;3.00;;;1.10;;
4268;SDS011;2148;48.554;7.834;2023-05-10T11:02:48;1.43;;;1.10;;
4268;SDS011;2148;48.554;7.834;2023-05-10T11:07:55;1.87;;;1.10;;
4268;SDS011;2148;48.554;7.834;2023-05-10T11:10:22;1.27;;;1.20;;
4268;SDS011;2148;48.554;7.834;2023-05-10T11:13:01;1.10;;;1.00;;
4268;SDS011;2148;48.554;7.834;2023-05-10T11:15:31;3.83;;;1.90;;
4268;SDS011;2148;48.554;7.834;2023-05-10T11:17:58;1.30;;;1.20;;
4268;SDS011;2148;48.554;7.834;2023-05-10T11:20:23;1.13;;;1.03;;
4268;SDS011;2148;48.554;7.834;2023-05-10T11:22:57;1.30;;;1.20;;
4268;SDS011;2148;48.554;7.834;2023-05-10T11:25:26;1.30;;;1.20;;
4268;SDS011;2148;48.554;7.834;2023-05-10T11:27:52;1.13;;;1.03;;
4268;SDS011;2148;48.554;7.834;2023-05-10T11:30:17;2.20;;;1.30;;
4268;SDS011;2148;48.554;7.834;2023-05-10T11:32:42;1.20;;;1.10;;
4268;SDS011;2148;48.554;7.834;2023-05-10T11:35:08;2.30;;;1.20;;
4268;SDS011;2148;48.554;7.834;2023-05-10T11:37:35;1.07;;;1.07;;
4268;SDS011;2148;48.554;7.834;2023-05-10T11:40:00;1.47;;;1.10;;
4268;SDS011;2148;48.554;7.834;2023-05-10T11:42:27;2.53;;;1.40;;
4268;SDS011;2148;48.554;7.834;2023-05-10T11:44:53;1.67;;;1.50;;
4268;SDS011;2148;48.554;7.834;2023-05-10T11:47:18;2.70;;;1.20;;
4268;SDS011;2148;48.554;7.834;2023-05-10T11:49:44;2.20;;;1.20;;
4268;SDS011;2148;48.554;7.834;2023-05-10T11:52:09;1.30;;;1.20;;
4268;SDS011;2148;48.554;7.834;2023-05-10T11:54:36;1.13;;;1.03;;
4268;SDS011;2148;48.554;7.834;2023-05-10T11:57:01;1.70;;;1.20;;
4268;SDS011;2148;48.554;7.834;2023-05-10T11:59:27;1.17;;;1.07;;
4268;SDS011;2148;48.554;7.834;2023-05-10T12:01:52;1.50;;;1.13;;
4268;SDS011;2148;48.554;7.834;2023-05-10T12:04:17;2.77;;;1.20;;
4268;SDS011;2148;48.554;7.834;2023-05-10T12:06:43;3.60;;;1.20;;
4268;SDS011;2148;48.554;7.834;2023-05-10T12:09:09;1.37;;;1.20;;
4268;SDS011;2148;48.554;7.834;2023-05-10T12:11:36;1.27;;;1.07;;
4268;SDS011;2148;48.554;7.834;2023-05-10T12:14:04;1.90;;;1.20;;
4268;SDS011;2148;48.554;7.834;2023-05-10T12:16:30;1.20;;;1.10;;
4268;SDS011;2148;48.554;7.834;2023-05-10T12:18:56;1.27;;;1.17;;
4268;SDS011;2148;48.554;7.834;2023-05-10T12:21:22;1.43;;;1.00;;
4268;SDS011;2148;48.554;7.834;2023-05-10T12:23:49;1.27;;;1.17;;
4268;SDS011;2148;48.554;7.834;2023-05-10T12:26:16;1.50;;;1.13;;
4268;SDS011;2148;48.554;7.834;2023-05-10T12:28:41;1.73;;;1.10;;
4268;SDS011;2148;48.554;7.834;2023-05-10T12:31:07;1.20;;;1.10;;
4268;SDS011;2148;48.554;7.834;2023-05-10T12:33:42;2.07;;;1.40;;
4268;SDS011;2148;48.554;7.834;2023-05-10T12:36:09;1.30;;;1.20;;
4268;SDS011;2148;48.554;7.834;2023-05-10T12:41:08;1.47;;;1.20;;
4268;SDS011;2148;48.554;7.834;2023-05-10T12:43:35;1.10;;;1.00;;
4268;SDS011;2148;48.554;7.834;2023-05-10T12:46:07;1.30;;;1.20;;
4268;SDS011;2148;48.554;7.834;2023-05-10T12:48:33;1.20;;;1.10;;
4268;SDS011;2148;48.554;7.834;2023-05-10T12:51:00;3.03;;;1.30;;
4268;SDS011;2148;48.554;7.834;2023-05-10T12:53:26;1.73;;;1.10;;
4268;SDS011;2148;48.554;7.834;2023-05-10T12:55:51;1.40;;;1.30;;
4268;SDS011;2148;48.554;7.834;2023-05-10T12:58:17;1.30;;;1.20;;
4268;SDS011;2148;48.554;7.834;2023-05-10T13:00:42;1.60;;;1.30;;
4268;SDS011;2148;48.554;7.834;2023-05-10T13:03:08;2.23;;;1.60;;
4268;SDS011;2148;48.554;7.834;2023-05-10T13:05:34;2.67;;;1.37;;
4268;SDS011;2148;48.554;7.834;2023-05-10T13:08:00;1.30;;;1.13;;
4268;SDS011;2148;48.554;7.834;2023-05-10T13:10:25;1.30;;;1.00;;
4268;SDS011;2148;48.554;7.834;2023-05-10T13:12:51;1.17;;;1.07;;
4268;SDS011;2148;48.554;7.834;2023-05-10T13:15:16;2.67;;;1.27;;
4268;SDS011;2148;48.554;7.834;2023-05-10T13:17:42;1.70;;;1.07;;
4268;SDS011;2148;48.554;7.834;2023-05-10T13:20:07;4.13;;;1.20;;
4268;SDS011;2148;48.554;7.834;2023-05-10T13:22:34;3.00;;;1.40;;
4268;SDS011;2148;48.554;7.834;2023-05-10T13:24:59;1.83;;;1.00;;
4268;SDS011;2148;48.554;7.834;2023-05-10T13:27:25;2.00;;;1.40;;
4268;SDS011;2148;48.554;7.834;2023-05-10T13:29:50;1.57;;;1.40;;
4268;SDS011;2148;48.554;7.834;2023-05-10T13:32:15;1.30;;;1.17;;
4268;SDS011;2148;48.554;7.834;2023-05-10T13:34:41;2.20;;;1.10;;
4268;SDS011;2148;48.554;7.834;2023-05-10T13:37:06;2.30;;;1.40;;
4268;SDS011;2148;48.554;7.834;2023-05-10T13:39:31;1.57;;;1.20;;
4268;SDS011;2148;48.554;7.834;2023-05-10T13:41:59;1.53;;;1.10;;
4268;SDS011;2148;48.554;7.834;2023-05-10T13:44:24;2.50;;;1.17;;
4268;SDS011;2148;48.554;7.834;2023-05-10T13:46:50;1.30;;;1.10;;
4268;SDS011;2148;48.554;7.834;2023-05-10T13:49:15;2.63;;;1.30;;
4268;SDS011;2148;48.554;7.834;2023-05-10T13:51:40;3.37;;;1.37;;
4268;SDS011;2148;48.554;7.834;2023-05-10T13:54:05;1.73;;;1.20;;
4268;SDS011;2148;48.554;7.834;2023-05-10T13:56:31;2.30;;;1.60;;
4268;SDS011;2148;48.554;7.834;2023-05-10T13:58:56;1.33;;;1.20;;
4268;SDS011;2148;48.554;7.834;2023-05-10T14:01:22;3.33;;;1.33;;
4268;SDS011;2148;48.554;7.834;2023-05-10T14:03:47;1.33;;;1.20;;
4268;SDS011;2148;48.554;7.834;2023-05-10T14:06:13;1.30;;;1.03;;
4268;SDS011;2148;48.554;7.834;2023-05-10T14:08:38;1.10;;;1.00;;
4268;SDS011;2148;48.554;7.834;2023-05-10T14:11:03;1.90;;;1.03;;
4268;SDS011;2148;48.554;7.834;2023-05-10T14:13:28;0.90;;;0.90;;
4268;SDS011;2148;48.554;7.834;2023-05-10T14:15:54;1.10;;;1.00;;
4268;SDS011;2148;48.554;7.834;2023-05-10T14:18:19;1.30;;;1.10;;
4268;SDS011;2148;48.554;7.834;2023-05-10T14:20:45;1.00;;;0.90;;
4268;SDS011;2148;48.554;7.834;2023-05-10T14:23:10;1.77;;;1.00;;
4268;SDS011;2148;48.554;7.834;2023-05-10T14:25:36;2.40;;;1.10;;
4268;SDS011;2148;48.554;7.834;2023-05-10T14:28:01;2.20;;;1.10;;
4268;SDS011;2148;48.554;7.834;2023-05-10T14:30:26;1.13;;;1.10;;
4268;SDS011;2148;48.554;7.834;2023-05-10T14:32:52;1.40;;;1.30;;
4268;SDS011;2148;48.554;7.834;2023-05-10T14:35:19;1.27;;;1.10;;
4268;SDS011;2148;48.554;7.834;2023-05-10T14:37:44;1.10;;;1.00;;
4268;SDS011;2148;48.554;7.834;2023-05-10T14:40:09;1.90;;;1.00;;
4268;SDS011;2148;48.554;7.834;2023-05-10T14:42:35;1.20;;;1.10;;
4268;SDS011;2148;48.554;7.834;2023-05-10T14:45:00;1.80;;;1.00;;
4268;SDS011;2148;48.554;7.834;2023-05-10T14:47:26;1.63;;;1.00;;
4268;SDS011;2148;48.554;7.834;2023-05-10T14:49:52;1.00;;;0.90;;
4268;SDS011;2148;48.554;7.834;2023-05-10T14:52:17;0.90;;;0.90;;
4268;SDS011;2148;48.554;7.834;2023-05-10T14:54:42;1.20;;;1.10;;
4268;SDS011;2148;48.554;7.834;2023-05-10T14:57:08;1.27;;;1.00;;
4268;SDS011;2148;48.554;7.834;2023-05-10T14:59:33;2.47;;;1.00;;
4268;SDS011;2148;48.554;7.834;2023-05-10T15:01:58;1.30;;;1.20;;
4268;SDS011;2148;48.554;7.834;2023-05-10T15:04:23;1.23;;;1.10;;
4268;SDS011;2148;48.554;7.834;2023-05-10T15:06:49;1.07;;;1.00;;
4268;SDS011;2148;48.554;7.834;2023-05-10T15:09:14;1.30;;;1.20;;
4268;SDS011;2148;48.554;7.834;2023-05-10T15:11:41;1.20;;;1.10;;
4268;SDS011;2148;48.554;7.834;2023-05-10T15:14:06;1.77;;;1.00;;
4268;SDS011;2148;48.554;7.834;2023-05-10T15:16:31;1.30;;;1.20;;
4268;SDS011;2148;48.554;7.834;2023-05-10T15:18:56;1.20;;;1.07;;
4268;SDS011;2148;48.554;7.834;2023-05-10T15:21:22;1.30;;;1.20;;
4268;SDS011;2148;48.554;7.834;2023-05-10T15:23:47;0.93;;;0.93;;
4268;SDS011;2148;48.554;7.834;2023-05-10T15:26:13;1.60;;;1.00;;
4268;SDS011;2148;48.554;7.834;2023-05-10T15:28:38;1.00;;;1.00;;
4268;SDS011;2148;48.554;7.834;2023-05-10T15:31:03;1.10;;;1.00;;
4268;SDS011;2148;48.554;7.834;2023-05-10T15:33:29;1.57;;;1.00;;
4268;SDS011;2148;48.554;7.834;2023-05-10T15:35:54;1.10;;;1.00;;
4268;SDS011;2148;48.554;7.834;2023-05-10T15:38:19;1.30;;;1.20;;
4268;SDS011;2148;48.554;7.834;2023-05-10T15:40:45;2.50;;;1.30;;